Mirror Lake, New Hampshire
Current Conditions -  °F | °C
As of 10:15 PM on Wednesday 22 Oct 2014 (Local Time) from KLCI Reporting Station
Overcast Overcast  
Wind Chill: 40°   Ceiling: 900
Heat Index: 46°   Visibility: 9mi
Dew Point: 43°   Wind: 15mph
Humidity: 87%   Direction: 60°ENE
Pressure: 29.98"   Gusts: 24mph
Location:  43.62°N, 71.28°W
Report Text: KLCI 230215Z AUTO 06013G21KT 9SM OVC009 08/06 A2998 RMK AO1
Loading
Personal Weather Stations






























Interactive Weather Map
Tropical Storm Tracking
New forecast layout! Learn more

10-Day Weather Forecast

Advertisements
Track Severe Weather on mobile